createdAt,value
2018-09-21T00:00:38.884Z,12.50
2018-09-21T00:03:08.181Z,12.50
2018-09-21T00:05:36.502Z,12.50
2018-09-21T00:08:04.975Z,12.50
2018-09-21T00:10:33.322Z,12.40
2018-09-21T00:13:01.627Z,12.50
2018-09-21T00:15:30.183Z,12.60
2018-09-21T00:17:58.855Z,12.60
2018-09-21T00:20:27.187Z,12.60
2018-09-21T00:22:55.500Z,12.50
2018-09-21T00:25:23.790Z,12.50
2018-09-21T00:27:52.083Z,12.60
2018-09-21T00:30:20.370Z,12.60
2018-09-21T00:32:48.661Z,12.50
2018-09-21T00:35:16.951Z,12.40
2018-09-21T00:37:45.242Z,12.40
2018-09-21T00:40:14.212Z,12.40
2018-09-21T00:42:42.515Z,12.20
2018-09-21T00:45:10.796Z,12.20
2018-09-21T00:47:39.079Z,12.20
2018-09-21T00:50:07.519Z,12.30
2018-09-21T00:52:35.792Z,12.30
2018-09-21T00:55:04.139Z,12.40
2018-09-21T00:57:32.422Z,12.30
2018-09-21T01:00:00.744Z,12.20
2018-09-21T01:02:29.040Z,12.20
2018-09-21T01:04:57.311Z,12.10
2018-09-21T01:07:25.606Z,12.10
2018-09-21T01:09:53.899Z,12.00
2018-09-21T01:12:22.178Z,12.10
2018-09-21T01:14:50.495Z,12.10
2018-09-21T01:17:18.794Z,12.10
2018-09-21T01:19:47.084Z,12.20
2018-09-21T01:22:15.384Z,12.10
2018-09-21T01:24:43.667Z,12.10
2018-09-21T01:27:16.255Z,12.10
2018-09-21T01:29:45.246Z,12.00
2018-09-21T01:32:13.843Z,11.90
2018-09-21T01:34:42.138Z,11.90
2018-09-21T01:37:10.435Z,11.80
2018-09-21T01:39:38.722Z,11.80
2018-09-21T01:42:07.044Z,11.70
2018-09-21T01:44:35.326Z,11.70
2018-09-21T01:47:03.615Z,11.70
2018-09-21T01:49:31.889Z,11.70
2018-09-21T01:52:00.192Z,11.60
2018-09-21T01:54:28.506Z,11.60
2018-09-21T01:56:56.801Z,11.60
2018-09-21T01:59:25.099Z,11.50
2018-09-21T02:01:53.381Z,11.50
2018-09-21T02:04:25.880Z,11.40
2018-09-21T02:06:54.169Z,11.40
2018-09-21T02:09:22.485Z,11.40
2018-09-21T02:11:50.782Z,11.40
2018-09-21T02:14:19.057Z,11.50
2018-09-21T02:16:47.363Z,11.40
2018-09-21T02:19:15.655Z,11.30
2018-09-21T02:21:43.948Z,11.30
2018-09-21T02:24:12.222Z,11.20
2018-09-21T02:26:40.517Z,11.20
2018-09-21T02:29:08.815Z,11.10
2018-09-21T02:31:37.114Z,11.10
2018-09-21T02:34:05.420Z,11.00
2018-09-21T02:36:33.715Z,11.00
2018-09-21T02:39:02.091Z,10.90
2018-09-21T02:41:30.472Z,10.90
2018-09-21T02:43:58.664Z,10.90
2018-09-21T02:46:26.945Z,10.90
2018-09-21T02:48:55.220Z,10.90
2018-09-21T02:51:23.565Z,10.80
2018-09-21T02:53:51.870Z,10.80
2018-09-21T02:56:20.804Z,10.80
2018-09-21T02:58:49.406Z,10.80
2018-09-21T03:01:17.969Z,10.80
2018-09-21T03:03:46.278Z,10.70
2018-09-21T03:06:14.571Z,10.60
2018-09-21T03:08:43.081Z,10.60
2018-09-21T03:11:11.477Z,10.70
2018-09-21T03:13:39.963Z,10.70
2018-09-21T03:16:08.234Z,10.60
2018-09-21T03:18:36.581Z,10.70
2018-09-21T03:21:04.876Z,10.70
2018-09-21T03:23:33.154Z,10.70
2018-09-21T03:26:01.436Z,10.70
2018-09-21T03:28:29.709Z,10.70
2018-09-21T03:30:57.985Z,10.70
2018-09-21T03:33:26.270Z,10.70
2018-09-21T03:35:54.553Z,10.70
2018-09-21T03:38:22.830Z,10.70
2018-09-21T03:40:51.122Z,10.80
2018-09-21T03:43:19.440Z,10.90
2018-09-21T03:45:47.713Z,10.90
2018-09-21T03:48:16.177Z,10.90
2018-09-21T03:50:44.550Z,10.90
2018-09-21T03:53:12.870Z,10.80
2018-09-21T03:55:41.149Z,10.80
2018-09-21T03:58:09.480Z,10.80
2018-09-21T04:00:37.765Z,10.80
2018-09-21T04:03:06.056Z,10.90
2018-09-21T04:05:34.362Z,11.00
2018-09-21T04:08:02.674Z,11.00
2018-09-21T04:10:30.952Z,10.90
2018-09-21T04:12:59.237Z,10.80
2018-09-21T04:15:27.621Z,10.90
2018-09-21T04:17:56.554Z,10.90
2018-09-21T04:20:24.831Z,10.90
2018-09-21T04:23:01.637Z,10.90
2018-09-21T04:25:30.486Z,10.90
2018-09-21T04:27:58.786Z,10.90
2018-09-21T04:30:27.860Z,10.90
2018-09-21T04:32:56.448Z,10.70
2018-09-21T04:35:24.728Z,10.60
2018-09-21T04:37:53.258Z,10.60
2018-09-21T04:40:21.607Z,10.60
2018-09-21T04:42:50.154Z,10.70
2018-09-21T04:45:18.469Z,10.80
2018-09-21T04:47:46.744Z,11.00
2018-09-21T04:50:15.028Z,11.00
2018-09-21T04:52:43.316Z,11.00
2018-09-21T04:55:11.602Z,11.00
2018-09-21T04:57:39.916Z,11.00
2018-09-21T05:00:09.225Z,11.00
2018-09-21T05:02:37.497Z,10.90
2018-09-21T05:05:05.982Z,10.90
2018-09-21T05:07:34.327Z,10.80
2018-09-21T05:10:08.787Z,10.90
2018-09-21T05:12:37.096Z,10.90
2018-09-21T05:15:05.880Z,11.00
2018-09-21T05:17:34.320Z,11.00
2018-09-21T05:20:02.866Z,11.00
2018-09-21T05:22:31.250Z,11.00
2018-09-21T05:24:59.529Z,11.00
2018-09-21T05:27:27.903Z,11.10
2018-09-21T05:29:56.201Z,11.20
2018-09-21T05:32:24.470Z,11.20
2018-09-21T05:34:52.779Z,11.40
2018-09-21T05:37:21.061Z,11.60
2018-09-21T05:39:49.371Z,12.20
2018-09-21T05:42:17.649Z,12.90
2018-09-21T05:44:45.970Z,13.50
2018-09-21T05:47:14.311Z,14.00
2018-09-21T05:49:42.552Z,14.30
2018-09-21T05:52:11.388Z,14.90
2018-09-21T05:54:39.661Z,15.40
2018-09-21T05:57:07.967Z,15.40
2018-09-21T05:59:36.276Z,15.60
2018-09-21T06:02:04.637Z,16.00
2018-09-21T06:04:32.858Z,17.20
2018-09-21T06:07:01.124Z,18.90
2018-09-21T06:09:29.393Z,19.50
2018-09-21T06:11:57.673Z,20.40
2018-09-21T06:14:25.962Z,21.80
2018-09-21T06:16:54.265Z,23.30
2018-09-21T06:19:22.663Z,24.40
2018-09-21T06:21:50.915Z,24.70
2018-09-21T06:24:19.226Z,25.20
2018-09-21T06:26:47.521Z,25.30
2018-09-21T06:29:15.797Z,25.70
2018-09-21T06:31:44.102Z,26.40
2018-09-21T06:34:12.386Z,26.20
2018-09-21T06:36:40.680Z,26.10
2018-09-21T06:39:10.575Z,26.10
2018-09-21T06:41:39.377Z,25.50
2018-09-21T06:44:08.181Z,26.20
2018-09-21T06:46:36.468Z,26.80
2018-09-21T06:49:04.757Z,27.30
2018-09-21T06:51:33.388Z,27.80
2018-09-21T06:54:01.837Z,28.00
2018-09-21T06:56:30.150Z,27.80
2018-09-21T06:58:58.442Z,27.30
2018-09-21T07:01:26.736Z,27.90
2018-09-21T07:03:55.001Z,27.20
2018-09-21T07:06:23.291Z,29.10
2018-09-21T07:08:51.567Z,29.60
2018-09-21T07:11:19.854Z,30.30
2018-09-21T07:13:48.129Z,30.80
2018-09-21T07:16:16.413Z,30.50
2018-09-21T07:18:44.693Z,28.30
2018-09-21T07:21:12.989Z,27.90
2018-09-21T07:23:41.654Z,29.10
2018-09-21T07:26:10.124Z,28.10
2018-09-21T07:28:38.415Z,29.00
2018-09-21T07:31:06.884Z,28.10
2018-09-21T07:33:35.133Z,28.70
2018-09-21T07:36:03.441Z,29.70
2018-09-21T07:38:31.737Z,27.90
2018-09-21T07:41:00.061Z,29.30
2018-09-21T07:43:28.362Z,30.30
2018-09-21T07:45:56.642Z,31.80
2018-09-21T07:48:24.926Z,30.90
2018-09-21T07:50:53.218Z,30.20
2018-09-21T07:53:21.539Z,30.50
2018-09-21T07:55:49.926Z,32.00
2018-09-21T07:58:18.448Z,32.80
2018-09-21T08:00:46.801Z,32.00
2018-09-21T08:03:15.107Z,31.70
2018-09-21T08:05:43.428Z,31.20
2018-09-21T08:08:11.727Z,30.80
2018-09-21T08:10:39.998Z,31.30
2018-09-21T08:13:08.304Z,31.90
2018-09-21T08:15:36.609Z,31.60
2018-09-21T08:18:04.904Z,31.80
2018-09-21T08:20:33.201Z,31.80
2018-09-21T08:23:01.527Z,32.30
2018-09-21T08:25:29.833Z,31.50
2018-09-21T08:27:58.117Z,32.00
2018-09-21T08:30:26.465Z,32.30
2018-09-21T08:32:54.806Z,31.90
2018-09-21T08:35:23.122Z,32.80
2018-09-21T08:37:51.444Z,33.50
2018-09-21T08:40:19.767Z,31.70
2018-09-21T08:42:48.104Z,30.90
2018-09-21T08:45:16.407Z,31.90
2018-09-21T08:47:44.692Z,31.80
2018-09-21T08:50:12.964Z,31.10
2018-09-21T08:52:41.259Z,32.20
2018-09-21T08:55:09.530Z,31.30
2018-09-21T08:57:37.869Z,33.10
2018-09-21T09:00:06.160Z,33.40
2018-09-21T09:02:34.499Z,34.30
2018-09-21T09:05:02.798Z,33.40
2018-09-21T09:07:31.098Z,34.70
2018-09-21T09:09:59.402Z,34.20
2018-09-21T09:12:27.680Z,34.10
2018-09-21T09:14:56.014Z,32.80
2018-09-21T09:17:24.322Z,31.80
2018-09-21T09:19:52.685Z,31.60
2018-09-21T09:22:20.954Z,30.80
2018-09-21T09:24:49.293Z,30.70
2018-09-21T09:27:17.553Z,31.30
2018-09-21T09:29:45.862Z,31.10
2018-09-21T09:32:14.125Z,33.10
2018-09-21T09:34:42.472Z,33.60
2018-09-21T09:37:10.750Z,33.40
2018-09-21T09:39:39.137Z,34.10
2018-09-21T09:42:07.403Z,33.30
2018-09-21T09:44:35.711Z,33.50
2018-09-21T09:47:04.000Z,34.80
2018-09-21T09:49:32.269Z,34.50
2018-09-21T09:52:00.706Z,33.50
2018-09-21T09:54:28.980Z,33.10
2018-09-21T09:56:57.368Z,33.00
2018-09-21T09:59:25.641Z,33.80
2018-09-21T10:01:53.913Z,33.50
2018-09-21T10:04:22.189Z,32.50
2018-09-21T10:06:50.600Z,32.20
2018-09-21T10:09:18.876Z,32.60
2018-09-21T10:11:47.169Z,31.00
2018-09-21T10:14:15.455Z,31.50
2018-09-21T10:16:43.732Z,32.70
2018-09-21T10:19:12.181Z,34.10
2018-09-21T10:21:40.493Z,33.10
2018-09-21T10:24:08.802Z,34.20
2018-09-21T10:26:37.080Z,35.00
2018-09-21T10:29:05.358Z,35.20
2018-09-21T10:31:33.628Z,35.40
2018-09-21T10:34:01.916Z,34.80
2018-09-21T10:36:30.355Z,34.30
2018-09-21T10:38:58.844Z,34.00
2018-09-21T10:41:27.072Z,34.40
2018-09-21T10:43:55.398Z,34.10
2018-09-21T10:46:23.681Z,36.00
2018-09-21T10:48:51.992Z,36.40
2018-09-21T10:51:20.261Z,35.00
2018-09-21T10:53:48.526Z,33.80
2018-09-21T10:56:17.075Z,34.70
2018-09-21T10:58:45.454Z,35.00
2018-09-21T11:01:13.655Z,35.30
2018-09-21T11:03:41.934Z,35.00
2018-09-21T11:06:10.239Z,35.50
2018-09-21T11:08:38.500Z,33.30
2018-09-21T11:11:06.810Z,32.90
2018-09-21T11:13:35.292Z,32.30
2018-09-21T11:16:05.978Z,30.80
2018-09-21T11:18:34.249Z,30.10
2018-09-21T11:21:02.583Z,29.60
2018-09-21T11:23:31.279Z,30.20
2018-09-21T11:25:59.558Z,30.60
2018-09-21T11:28:27.897Z,30.40
2018-09-21T11:30:56.190Z,29.70
2018-09-21T11:33:24.502Z,29.50
2018-09-21T11:35:52.953Z,29.30
2018-09-21T11:38:21.252Z,30.00
2018-09-21T11:40:49.581Z,31.40
2018-09-21T11:43:17.895Z,33.50
2018-09-21T11:45:46.264Z,34.40
2018-09-21T11:48:14.613Z,35.00
2018-09-21T11:50:42.935Z,34.10
2018-09-21T11:53:11.259Z,34.80
2018-09-21T11:55:39.550Z,35.10
2018-09-21T11:58:07.941Z,35.50
2018-09-21T12:00:36.334Z,35.40
2018-09-21T12:03:04.653Z,34.70
2018-09-21T12:05:32.945Z,33.70
2018-09-21T12:08:01.396Z,33.60
2018-09-21T12:10:29.679Z,33.80
2018-09-21T12:12:58.118Z,34.10
2018-09-21T12:15:26.506Z,33.50
2018-09-21T12:17:54.886Z,32.60
2018-09-21T12:20:23.303Z,33.40
2018-09-21T12:22:51.670Z,34.00
2018-09-21T12:25:19.965Z,33.10
2018-09-21T12:27:48.358Z,33.70
2018-09-21T12:30:16.831Z,32.80
2018-09-21T12:32:45.045Z,32.90
2018-09-21T12:35:13.382Z,33.00
2018-09-21T12:37:41.726Z,32.50
2018-09-21T12:40:10.107Z,32.70
2018-09-21T12:42:38.903Z,33.00
2018-09-21T12:45:07.886Z,32.30
2018-09-21T12:47:36.309Z,32.50
2018-09-21T12:50:04.959Z,32.10
2018-09-21T12:52:33.229Z,32.40
2018-09-21T12:55:01.580Z,33.00
2018-09-21T12:57:29.949Z,33.70
2018-09-21T12:59:58.215Z,33.30
2018-09-21T13:02:26.638Z,32.60
2018-09-21T13:04:54.939Z,32.40
2018-09-21T13:07:23.251Z,32.90
2018-09-21T13:09:51.578Z,32.70
2018-09-21T13:12:19.896Z,32.50
2018-09-21T13:14:48.235Z,33.00
2018-09-21T13:17:16.672Z,32.50
2018-09-21T13:19:45.085Z,32.50
2018-09-21T13:22:13.371Z,32.20
2018-09-21T13:24:41.713Z,31.60
2018-09-21T13:27:10.097Z,32.50
2018-09-21T13:29:38.543Z,32.40
2018-09-21T13:32:06.893Z,32.60
2018-09-21T13:34:35.173Z,31.80
2018-09-21T13:37:03.460Z,32.30
2018-09-21T13:39:31.752Z,32.30
2018-09-21T13:42:00.082Z,32.30
2018-09-21T13:44:28.381Z,32.00
2018-09-21T13:46:56.694Z,32.10
2018-09-21T13:49:25.034Z,33.00
2018-09-21T13:51:53.498Z,33.30
2018-09-21T13:54:21.733Z,32.60
2018-09-21T13:56:50.007Z,30.50
2018-09-21T13:59:18.356Z,29.20
2018-09-21T14:01:46.725Z,28.50
2018-09-21T14:04:15.082Z,28.70
2018-09-21T14:06:43.356Z,30.70
2018-09-21T14:09:11.630Z,32.60
2018-09-21T14:11:39.933Z,31.80
2018-09-21T14:14:08.222Z,32.30
2018-09-21T14:16:36.535Z,32.50
2018-09-21T14:19:04.821Z,32.30
2018-09-21T14:21:33.162Z,30.90
2018-09-21T14:24:01.381Z,31.10
2018-09-21T14:26:29.673Z,30.90
2018-09-21T14:28:58.019Z,30.50
2018-09-21T14:31:26.266Z,29.10
2018-09-21T14:33:54.640Z,28.20
2018-09-21T14:36:22.939Z,27.80
2018-09-21T14:38:51.222Z,27.50
2018-09-21T14:41:19.495Z,27.30
2018-09-21T14:43:47.799Z,27.10
2018-09-21T14:46:16.105Z,27.00
2018-09-21T14:48:44.397Z,26.90
2018-09-21T14:51:12.677Z,26.90
2018-09-21T14:53:40.965Z,26.80
2018-09-21T14:56:09.241Z,26.80
2018-09-21T14:58:37.546Z,26.90
2018-09-21T15:01:05.824Z,26.90
2018-09-21T15:06:14.897Z,26.90
2018-09-21T15:08:43.126Z,27.30
2018-09-21T15:11:11.414Z,27.20
2018-09-21T15:13:39.730Z,27.10
2018-09-21T15:16:07.902Z,26.90
2018-09-21T15:18:36.331Z,26.70
2018-09-21T15:21:04.569Z,26.80
2018-09-21T15:23:32.774Z,26.70
2018-09-21T15:26:00.994Z,26.60
2018-09-21T15:28:29.202Z,26.40
2018-09-21T15:30:57.405Z,26.30
2018-09-21T15:33:25.606Z,26.30
2018-09-21T15:35:53.802Z,26.30
2018-09-21T15:38:22.033Z,26.20
2018-09-21T15:40:50.240Z,26.00
2018-09-21T15:43:18.567Z,25.90
2018-09-21T15:45:46.658Z,25.80
2018-09-21T15:48:14.907Z,25.80
2018-09-21T15:50:43.250Z,25.70
2018-09-21T15:53:11.484Z,25.70
2018-09-21T15:55:39.673Z,25.70
2018-09-21T15:58:07.913Z,25.60
2018-09-21T16:00:36.340Z,25.50
2018-09-21T16:03:04.616Z,25.50
2018-09-21T16:05:32.818Z,25.40
2018-09-21T16:08:01.033Z,25.30
2018-09-21T16:10:29.246Z,25.30
2018-09-21T16:12:57.550Z,25.20
2018-09-21T16:15:25.770Z,25.10
2018-09-21T16:17:54.051Z,25.00
2018-09-21T16:20:22.386Z,24.90
2018-09-21T16:22:50.847Z,24.80
2018-09-21T16:25:19.083Z,24.80
2018-09-21T16:27:47.302Z,24.70
2018-09-21T16:30:15.523Z,24.60
2018-09-21T16:32:43.885Z,24.60
2018-09-21T16:35:12.441Z,24.50
2018-09-21T16:37:40.694Z,24.40
2018-09-21T16:40:08.923Z,24.20
2018-09-21T16:42:37.159Z,24.10
2018-09-21T16:45:06.144Z,23.90
2018-09-21T16:47:34.300Z,23.70
2018-09-21T16:50:02.515Z,23.60
2018-09-21T16:52:30.725Z,23.50
2018-09-21T16:54:59.033Z,23.40
2018-09-21T16:57:27.286Z,23.30
2018-09-21T16:59:56.610Z,23.20
2018-09-21T17:02:24.826Z,23.20
2018-09-21T17:04:53.243Z,23.10
2018-09-21T17:07:21.423Z,23.00
2018-09-21T17:09:50.032Z,22.90
2018-09-21T17:12:23.962Z,22.90
2018-09-21T17:14:52.217Z,22.90
2018-09-21T17:17:20.431Z,22.80
2018-09-21T17:19:48.655Z,22.70
2018-09-21T17:22:16.890Z,22.70
2018-09-21T17:24:45.114Z,22.70
2018-09-21T17:27:13.322Z,22.80
2018-09-21T17:29:43.322Z,22.80
2018-09-21T17:32:11.620Z,22.80
2018-09-21T17:34:57.137Z,22.60
2018-09-21T17:37:25.419Z,22.60
2018-09-21T17:39:53.723Z,22.60
2018-09-21T17:42:21.914Z,22.70
2018-09-21T17:44:50.156Z,22.60
2018-09-21T17:47:21.598Z,22.50
2018-09-21T17:49:49.818Z,22.40
2018-09-21T17:52:18.071Z,22.30
2018-09-21T17:54:46.290Z,22.20
2018-09-21T17:57:14.563Z,22.10
2018-09-21T17:59:42.814Z,22.10
2018-09-21T18:02:11.002Z,22.10
2018-09-21T18:04:39.242Z,22.10
2018-09-21T18:07:07.470Z,22.00
2018-09-21T18:09:35.699Z,22.00
2018-09-21T18:12:03.916Z,21.80
2018-09-21T18:14:32.163Z,21.70
2018-09-21T18:17:00.430Z,21.50
2018-09-21T18:19:28.720Z,21.50
2018-09-21T18:21:56.938Z,21.50
2018-09-21T18:24:25.339Z,21.40
2018-09-21T18:26:53.595Z,21.40
2018-09-21T18:29:22.030Z,21.40
2018-09-21T18:31:50.807Z,21.30
2018-09-21T18:34:19.015Z,21.30
2018-09-21T18:36:47.252Z,21.20
2018-09-21T18:39:15.462Z,21.10
2018-09-21T18:41:43.755Z,21.10
2018-09-21T18:44:12.066Z,21.00
2018-09-21T18:46:40.294Z,20.90
2018-09-21T18:49:21.345Z,20.90
2018-09-21T18:51:49.606Z,20.90
2018-09-21T18:54:17.843Z,20.80
2018-09-21T18:56:46.151Z,20.40
2018-09-21T18:59:14.889Z,20.10
2018-09-21T19:01:43.186Z,19.80
2018-09-21T19:04:11.470Z,19.60
2018-09-21T19:06:39.814Z,19.50
2018-09-21T19:09:09.474Z,19.10
2018-09-21T19:11:37.746Z,18.70
2018-09-21T19:14:06.334Z,18.40
2018-09-21T19:16:34.805Z,18.20
2018-09-21T19:19:03.203Z,18.00
2018-09-21T19:21:31.443Z,17.90
2018-09-21T19:23:59.747Z,17.70
2018-09-21T19:26:28.260Z,17.50
2018-09-21T19:28:56.538Z,17.40
2018-09-21T19:31:43.133Z,17.20
2018-09-21T19:34:11.346Z,16.90
2018-09-21T19:36:39.626Z,16.60
2018-09-21T19:39:09.879Z,16.30
2018-09-21T19:41:38.152Z,16.20
2018-09-21T19:44:06.549Z,16.10
2018-09-21T19:46:34.809Z,15.90
2018-09-21T19:49:03.088Z,15.70
2018-09-21T19:51:31.728Z,15.60
2018-09-21T19:54:04.007Z,15.50
2018-09-21T19:56:32.566Z,15.40
2018-09-21T19:59:00.802Z,15.20
2018-09-21T20:01:29.307Z,15.10
2018-09-21T20:03:57.823Z,15.00
2018-09-21T20:06:26.027Z,14.80
2018-09-21T20:08:54.237Z,14.80
2018-09-21T20:11:25.766Z,14.80
2018-09-21T20:13:54.010Z,14.70
2018-09-21T20:16:22.315Z,14.70
2018-09-21T20:18:50.519Z,14.60
2018-09-21T20:21:18.940Z,14.50
2018-09-21T20:23:47.195Z,14.40
2018-09-21T20:26:15.418Z,14.30
2018-09-21T20:28:43.650Z,14.20
2018-09-21T20:31:17.335Z,14.10
2018-09-21T20:33:45.519Z,13.90
2018-09-21T20:36:13.783Z,13.70
2018-09-21T20:38:42.007Z,13.60
2018-09-21T20:41:10.419Z,13.50
2018-09-21T20:43:38.623Z,13.50
2018-09-21T20:46:06.831Z,13.40
2018-09-21T20:48:35.083Z,13.30
2018-09-21T20:51:03.282Z,13.20
2018-09-21T20:53:31.507Z,13.10
2018-09-21T20:55:59.717Z,13.00
2018-09-21T20:58:28.074Z,13.00
2018-09-21T21:00:56.389Z,13.00
2018-09-21T21:03:24.594Z,13.00
2018-09-21T21:05:52.823Z,12.90
2018-09-21T21:08:21.046Z,12.90
2018-09-21T21:10:49.230Z,12.90
2018-09-21T21:13:17.482Z,12.90
2018-09-21T21:15:45.690Z,12.90
2018-09-21T21:18:13.878Z,12.90
2018-09-21T21:20:42.077Z,12.90
2018-09-21T21:23:10.298Z,12.90
2018-09-21T21:25:38.509Z,12.90
2018-09-21T21:28:07.242Z,12.90
2018-09-21T21:30:35.772Z,12.90
2018-09-21T21:33:04.186Z,12.90
2018-09-21T21:35:32.657Z,12.90
2018-09-21T21:38:01.170Z,12.90
2018-09-21T21:40:29.731Z,12.90
2018-09-21T21:42:57.938Z,12.90
2018-09-21T21:45:26.280Z,12.90
2018-09-21T21:47:54.530Z,12.90
2018-09-21T21:50:22.805Z,12.90
2018-09-21T21:52:51.005Z,12.90
2018-09-21T21:55:19.239Z,12.90
2018-09-21T21:57:47.455Z,12.90
2018-09-21T22:00:15.798Z,12.90
2018-09-21T22:02:44.258Z,13.00
2018-09-21T22:05:12.544Z,13.00
2018-09-21T22:07:40.775Z,13.00
2018-09-21T22:10:09.371Z,13.00
2018-09-21T22:12:43.045Z,13.00
2018-09-21T22:15:13.685Z,13.00
2018-09-21T22:17:41.927Z,13.10
2018-09-21T22:20:10.141Z,13.10
2018-09-21T22:22:38.358Z,13.10
2018-09-21T22:25:06.667Z,13.10
2018-09-21T22:27:34.882Z,13.10
2018-09-21T22:30:03.086Z,13.10
2018-09-21T22:32:31.335Z,13.10
2018-09-21T22:34:59.530Z,13.10
2018-09-21T22:37:28.194Z,13.10
2018-09-21T22:39:56.414Z,13.10
2018-09-21T22:42:24.743Z,13.10
2018-09-21T22:44:53.076Z,13.10
2018-09-21T22:47:21.246Z,13.10
2018-09-21T22:49:49.453Z,13.00
2018-09-21T22:52:17.687Z,13.00
2018-09-21T22:54:45.914Z,13.00
2018-09-21T22:57:14.133Z,12.90
2018-09-21T22:59:42.342Z,13.00
2018-09-21T23:02:10.585Z,12.90
2018-09-21T23:04:38.802Z,12.90
2018-09-21T23:07:07.049Z,12.90
2018-09-21T23:09:35.263Z,12.80
2018-09-21T23:12:03.470Z,12.90
2018-09-21T23:14:31.794Z,12.90
2018-09-21T23:16:59.998Z,12.80
2018-09-21T23:19:28.206Z,12.90
2018-09-21T23:21:56.404Z,12.90
2018-09-21T23:24:24.619Z,12.90
2018-09-21T23:26:52.827Z,12.90
2018-09-21T23:29:21.050Z,12.90
2018-09-21T23:31:49.312Z,12.90
2018-09-21T23:34:17.478Z,12.90
2018-09-21T23:36:45.735Z,12.90
2018-09-21T23:39:13.941Z,13.00
2018-09-21T23:41:42.196Z,13.00
2018-09-21T23:44:10.769Z,12.90
2018-09-21T23:46:39.094Z,12.90
2018-09-21T23:49:07.347Z,13.00
2018-09-21T23:51:35.554Z,13.00
2018-09-21T23:54:03.766Z,13.00
2018-09-21T23:56:31.979Z,13.00
2018-09-21T23:59:00.220Z,13.00
